Time;durP1;ratioP1;P1;durP2;ratioP2;P2;SDS_P1;SDS_P2;PMS_P1;PMS_P2;Temp;Humidity;BMP_temperature;BMP_pressure;BME280_temperature;BME280_humidity;BME280_pressure;Samples;Min_cycle;Max_cycle;Signal;HPM_P1;HPM_P2
2022/03/01 00:02:10;;;;;;;13.80;8.45;;;;;;;;;;5072410;28;20045;-67
2022/03/01 00:04:36;;;;;;;17.23;8.75;;;;;;;;;;5072628;28;20094;-67
2022/03/01 00:07:03;;;;;;;12.68;8.30;;;;;;;;;;5072970;28;20044;-67
2022/03/01 00:09:30;;;;;;;15.90;8.88;;;;;;;;;;5073800;28;20499;-67
2022/03/01 00:11:56;;;;;;;15.80;9.27;;;;;;;;;;5073647;28;20070;-67
2022/03/01 00:14:22;;;;;;;14.73;8.77;;;;;;;;;;5071563;28;20788;-67
2022/03/01 00:16:48;;;;;;;14.60;8.57;;;;;;;;;;5072195;28;20045;-67
2022/03/01 00:19:14;;;;;;;16.23;9.13;;;;;;;;;;5072034;28;20075;-67
2022/03/01 00:21:41;;;;;;;12.93;8.07;;;;;;;;;;5072799;28;20123;-67
2022/03/01 00:24:07;;;;;;;15.05;8.32;;;;;;;;;;5055159;28;20056;-67
2022/03/01 00:26:33;;;;;;;13.35;8.57;;;;;;;;;;5083684;28;20044;-67
2022/03/01 00:28:59;;;;;;;15.68;8.48;;;;;;;;;;5091242;28;20052;-67
2022/03/01 00:31:25;;;;;;;17.33;9.13;;;;;;;;;;5075280;28;20035;-67
2022/03/01 00:33:51;;;;;;;13.25;8.20;;;;;;;;;;5093003;28;20086;-67
2022/03/01 00:36:17;;;;;;;14.73;8.20;;;;;;;;;;5091929;28;20040;-67
2022/03/01 00:38:43;;;;;;;13.63;7.80;;;;;;;;;;5091117;28;20044;-67
2022/03/01 00:41:09;;;;;;;14.18;8.60;;;;;;;;;;5092002;28;20051;-67
2022/03/01 00:43:35;;;;;;;13.38;8.90;;;;;;;;;;5092579;28;20040;-67
2022/03/01 00:46:01;;;;;;;14.02;8.25;;;;;;;;;;5093062;28;20448;-67
2022/03/01 00:48:27;;;;;;;13.98;9.10;;;;;;;;;;5091731;28;20052;-67
2022/03/01 00:50:53;;;;;;;12.25;7.82;;;;;;;;;;5092257;28;20826;-67
2022/03/01 00:53:19;;;;;;;13.90;8.80;;;;;;;;;;5092655;28;20044;-67
2022/03/01 00:55:45;;;;;;;14.35;7.63;;;;;;;;;;5091130;28;20140;-67
2022/03/01 00:58:11;;;;;;;12.80;7.70;;;;;;;;;;5090620;28;20534;-67
2022/03/01 01:00:38;;;;;;;20.20;8.68;;;;;;;;;;5091464;28;20123;-67
2022/03/01 01:03:04;;;;;;;12.13;8.23;;;;;;;;;;5091425;28;20042;-67
2022/03/01 01:05:30;;;;;;;12.45;7.60;;;;;;;;;;5090443;28;20055;-67
2022/03/01 01:07:57;;;;;;;16.45;8.43;;;;;;;;;;5092738;28;20043;-67
2022/03/01 01:10:23;;;;;;;18.55;9.07;;;;;;;;;;5091512;28;20432;-67
2022/03/01 01:12:49;;;;;;;14.20;8.65;;;;;;;;;;5092155;28;20067;-67
2022/03/01 01:15:16;;;;;;;14.65;8.88;;;;;;;;;;5091084;28;20066;-67
2022/03/01 01:17:42;;;;;;;12.40;7.97;;;;;;;;;;5092522;28;20032;-67
2022/03/01 01:20:09;;;;;;;13.02;8.10;;;;;;;;;;5092067;28;20086;-67
2022/03/01 01:22:41;;;;;;;15.52;8.35;;;;;;;;;;5090971;28;20787;-67
2022/03/01 01:25:07;;;;;;;;;;;;;;;;;;5091362;28;20086;-67
2022/03/01 01:27:33;;;;;;;13.88;8.15;;;;;;;;;;5071541;28;19916;-67
2022/03/01 01:29:59;;;;;;;15.10;8.45;;;;;;;;;;5070454;28;20178;-67
2022/03/01 01:32:26;;;;;;;13.75;8.25;;;;;;;;;;5070522;28;20068;-67
2022/03/01 01:34:52;;;;;;;17.05;8.40;;;;;;;;;;5070908;28;20054;-67
2022/03/01 01:37:19;;;;;;;13.90;8.15;;;;;;;;;;5071921;28;20041;-67
2022/03/01 01:39:45;;;;;;;13.98;8.68;;;;;;;;;;5070656;28;20048;-67
2022/03/01 01:42:11;;;;;;;12.80;8.13;;;;;;;;;;5071274;28;20119;-67
2022/03/01 01:44:37;;;;;;;17.13;7.75;;;;;;;;;;5071570;28;20094;-67
2022/03/01 01:47:03;;;;;;;12.77;8.52;;;;;;;;;;5071762;28;20055;-67
2022/03/01 01:49:29;;;;;;;13.48;8.02;;;;;;;;;;5069445;28;20497;-67
2022/03/01 01:51:55;;;;;;;14.82;8.20;;;;;;;;;;5070316;28;20071;-67
2022/03/01 01:54:21;;;;;;;17.40;8.30;;;;;;;;;;5071570;28;20051;-67
2022/03/01 01:56:47;;;;;;;13.20;8.77;;;;;;;;;;5069332;28;20469;-67
2022/03/01 01:59:13;;;;;;;15.45;8.25;;;;;;;;;;5070118;28;20655;-67
2022/03/01 02:01:39;;;;;;;14.25;8.18;;;;;;;;;;5070439;28;20052;-67
2022/03/01 02:04:05;;;;;;;14.18;8.98;;;;;;;;;;5069939;28;20044;-67
2022/03/01 02:06:31;;;;;;;15.73;8.98;;;;;;;;;;5071475;28;20119;-67
2022/03/01 02:08:57;;;;;;;16.58;9.35;;;;;;;;;;5071524;28;20052;-67
2022/03/01 02:11:23;;;;;;;13.30;8.77;;;;;;;;;;5070950;28;20075;-67
2022/03/01 02:13:49;;;;;;;13.00;8.20;;;;;;;;;;5071460;28;20079;-67
2022/03/01 02:16:15;;;;;;;17.48;8.95;;;;;;;;;;5071546;28;20411;-67
2022/03/01 02:18:41;;;;;;;15.30;8.60;;;;;;;;;;5070610;28;20057;-67
2022/03/01 02:21:07;;;;;;;13.45;8.32;;;;;;;;;;5069885;28;20041;-67
2022/03/01 02:23:33;;;;;;;16.67;8.45;;;;;;;;;;5071482;28;20650;-67
2022/03/01 02:25:59;;;;;;;16.45;8.35;;;;;;;;;;5077643;28;20097;-67
2022/03/01 02:28:25;;;;;;;16.02;8.13;;;;;;;;;;5091271;28;20054;-67
2022/03/01 02:30:51;;;;;;;15.32;8.95;;;;;;;;;;5090141;28;20052;-67
2022/03/01 02:33:17;;;;;;;13.85;8.88;;;;;;;;;;5089413;28;20098;-67
2022/03/01 02:35:44;;;;;;;16.35;8.65;;;;;;;;;;5091424;28;20122;-67
2022/03/01 02:38:10;;;;;;;16.08;9.18;;;;;;;;;;5089826;28;20108;-67
2022/03/01 02:40:36;;;;;;;15.57;9.18;;;;;;;;;;5089646;28;20063;-67
2022/03/01 02:43:02;;;;;;;16.60;8.90;;;;;;;;;;5090867;28;20497;-67
2022/03/01 02:45:28;;;;;;;14.52;8.95;;;;;;;;;;5091035;28;20036;-67
2022/03/01 02:47:54;;;;;;;14.23;9.20;;;;;;;;;;5089753;28;20048;-67
2022/03/01 02:50:20;;;;;;;15.35;8.85;;;;;;;;;;5089094;28;20040;-67
2022/03/01 02:52:46;;;;;;;15.45;8.63;;;;;;;;;;5089809;28;20093;-67
2022/03/01 02:55:12;;;;;;;17.23;9.43;;;;;;;;;;5090834;28;20075;-67
2022/03/01 02:57:38;;;;;;;16.30;9.65;;;;;;;;;;5090620;28;20101;-67
2022/03/01 03:00:06;;;;;;;15.27;9.43;;;;;;;;;;5090561;28;20082;-67
2022/03/01 03:02:32;;;;;;;15.10;8.27;;;;;;;;;;5095377;28;20085;-67
2022/03/01 03:04:58;;;;;;;15.85;9.15;;;;;;;;;;5093293;28;20044;-67
2022/03/01 03:07:24;;;;;;;14.18;8.13;;;;;;;;;;5094797;28;20047;-67
2022/03/01 03:09:50;;;;;;;16.15;9.50;;;;;;;;;;5093406;28;20074;-67
2022/03/01 03:12:18;;;;;;;16.90;9.35;;;;;;;;;;5094338;28;20063;-67
2022/03/01 03:14:45;;;;;;;18.85;8.95;;;;;;;;;;5094719;28;20040;-67
2022/03/01 03:17:11;;;;;;;16.92;10.30;;;;;;;;;;5093422;28;20052;-67
2022/03/01 03:19:37;;;;;;;16.95;9.48;;;;;;;;;;5094244;28;20123;-67
2022/03/01 03:22:05;;;;;;;17.15;10.10;;;;;;;;;;5093527;28;20459;-67
2022/03/01 03:24:31;;;;;;;16.20;9.40;;;;;;;;;;5094680;28;20044;-67
2022/03/01 03:26:57;;;;;;;17.40;9.57;;;;;;;;;;5076720;28;20048;-67
2022/03/01 03:29:23;;;;;;;14.80;9.27;;;;;;;;;;5074005;28;20395;-67
2022/03/01 03:31:54;;;;;;;17.27;9.63;;;;;;;;;;5072631;28;20055;-67
2022/03/01 03:34:20;;;;;;;16.45;9.65;;;;;;;;;;5073569;28;20044;-67
2022/03/01 03:36:46;;;;;;;16.85;9.55;;;;;;;;;;5072579;28;20041;-67
2022/03/01 03:39:12;;;;;;;17.40;9.73;;;;;;;;;;5072629;28;20041;-67
2022/03/01 03:41:39;;;;;;;15.57;9.25;;;;;;;;;;5072281;28;20085;-67
2022/03/01 03:44:05;;;;;;;16.52;9.50;;;;;;;;;;5072439;28;20064;-67
2022/03/01 03:46:31;;;;;;;17.08;10.13;;;;;;;;;;5073599;28;20048;-67
2022/03/01 03:48:57;;;;;;;15.60;9.13;;;;;;;;;;5073058;28;20045;-67
2022/03/01 03:51:23;;;;;;;17.27;9.63;;;;;;;;;;5072398;28;20364;-67
2022/03/01 03:53:49;;;;;;;15.57;9.32;;;;;;;;;;5073951;28;20044;-67
2022/03/01 03:56:16;;;;;;;20.73;9.30;;;;;;;;;;5073199;28;20041;-67
2022/03/01 03:58:42;;;;;;;15.90;9.63;;;;;;;;;;5072122;28;20043;-67
2022/03/01 04:01:08;;;;;;;17.90;9.85;;;;;;;;;;5073810;28;20058;-68
2022/03/01 04:03:35;;;;;;;19.65;10.10;;;;;;;;;;5073035;28;20046;-67
2022/03/01 04:06:01;;;;;;;19.15;10.45;;;;;;;;;;5073525;28;20036;-67
2022/03/01 04:08:27;;;;;;;17.10;10.02;;;;;;;;;;5072118;28;20051;-67
2022/03/01 04:10:54;;;;;;;16.38;10.10;;;;;;;;;;5071646;28;20419;-67
2022/03/01 04:13:20;;;;;;;17.92;9.50;;;;;;;;;;5071997;28;20048;-67
2022/03/01 04:15:46;;;;;;;18.40;10.25;;;;;;;;;;5073368;28;20414;-67
2022/03/01 04:18:12;;;;;;;17.50;10.10;;;;;;;;;;5071030;28;20045;-67
2022/03/01 04:20:39;;;;;;;17.42;9.82;;;;;;;;;;5073318;28;20450;-67
2022/03/01 04:23:05;;;;;;;19.60;10.52;;;;;;;;;;5073409;28;20032;-67
2022/03/01 04:25:31;;;;;;;18.25;9.57;;;;;;;;;;5075975;28;20514;-67
2022/03/01 04:27:57;;;;;;;15.90;9.93;;;;;;;;;;5091543;28;20060;-67
2022/03/01 04:30:24;;;;;;;17.42;10.07;;;;;;;;;;5091833;28;20051;-67
2022/03/01 04:32:50;;;;;;;18.95;9.93;;;;;;;;;;5074496;28;20048;-67
2022/03/01 04:35:16;;;;;;;18.67;9.57;;;;;;;;;;5092868;28;20043;-67
2022/03/01 04:37:43;;;;;;;16.75;9.70;;;;;;;;;;5091754;28;20494;-67
2022/03/01 04:40:10;;;;;;;19.88;10.60;;;;;;;;;;5091014;28;20029;-67
2022/03/01 04:42:36;;;;;;;17.30;9.85;;;;;;;;;;5091610;28;20425;-67
2022/03/01 04:45:02;;;;;;;18.52;10.68;;;;;;;;;;5091533;28;20036;-67
2022/03/01 04:47:29;;;;;;;15.48;9.73;;;;;;;;;;5090766;28;20059;-67
2022/03/01 04:49:55;;;;;;;18.80;10.63;;;;;;;;;;5091382;28;20044;-67
2022/03/01 04:52:21;;;;;;;18.25;10.52;;;;;;;;;;5091607;28;20046;-67
2022/03/01 04:54:47;;;;;;;16.83;10.73;;;;;;;;;;5090791;28;20052;-67
2022/03/01 04:57:13;;;;;;;19.25;9.98;;;;;;;;;;5092447;28;20526;-67
2022/03/01 04:59:39;;;;;;;16.70;10.05;;;;;;;;;;5074395;28;20069;-67
2022/03/01 05:02:05;;;;;;;20.05;10.25;;;;;;;;;;5090856;28;20649;-67
2022/03/01 05:04:31;;;;;;;17.67;10.20;;;;;;;;;;5092780;28;20037;-67
2022/03/01 05:06:57;;;;;;;19.17;10.15;;;;;;;;;;5091040;28;20394;-67
2022/03/01 05:09:24;;;;;;;20.17;10.82;;;;;;;;;;5091983;28;20063;-67
2022/03/01 05:11:50;;;;;;;19.63;10.80;;;;;;;;;;5091046;28;20048;-67
2022/03/01 05:14:17;;;;;;;22.60;11.05;;;;;;;;;;5092735;28;20050;-67
2022/03/01 05:16:43;;;;;;;19.77;10.23;;;;;;;;;;5091516;28;20036;-67
2022/03/01 05:19:09;;;;;;;18.27;9.93;;;;;;;;;;5090711;28;20087;-67
2022/03/01 05:21:35;;;;;;;16.77;10.95;;;;;;;;;;5091241;28;20043;-67
2022/03/01 05:24:02;;;;;;;16.27;10.27;;;;;;;;;;5090889;28;20051;-67
2022/03/01 05:26:28;;;;;;;19.63;11.45;;;;;;;;;;5080996;28;20060;-67
2022/03/01 05:28:54;;;;;;;17.73;9.75;;;;;;;;;;5071677;28;20542;-67
2022/03/01 05:31:21;;;;;;;18.00;11.00;;;;;;;;;;5069729;28;20147;-67
2022/03/01 05:33:47;;;;;;;17.30;10.55;;;;;;;;;;5071599;28;20422;-67
2022/03/01 05:36:14;;;;;;;17.75;10.23;;;;;;;;;;5071796;28;20395;-67
2022/03/01 05:38:40;;;;;;;20.20;10.73;;;;;;;;;;5071141;28;20060;-67
2022/03/01 05:41:08;;;;;;;17.70;10.43;;;;;;;;;;5053703;28;20071;-67
2022/03/01 05:43:34;;;;;;;19.33;10.43;;;;;;;;;;5070256;28;20041;-67
2022/03/01 05:46:00;;;;;;;19.77;10.55;;;;;;;;;;5071062;28;20040;-67
2022/03/01 05:48:26;;;;;;;17.73;10.65;;;;;;;;;;5071631;28;20079;-67
2022/03/01 05:50:53;;;;;;;19.02;10.45;;;;;;;;;;5070438;28;20044;-67
2022/03/01 05:53:19;;;;;;;18.88;10.65;;;;;;;;;;5070917;28;20804;-67
2022/03/01 05:55:45;;;;;;;19.02;10.73;;;;;;;;;;5070248;28;20051;-67
2022/03/01 05:58:12;;;;;;;18.42;10.77;;;;;;;;;;5069830;28;20041;-67
2022/03/01 06:00:38;;;;;;;19.90;10.63;;;;;;;;;;5070881;28;20047;-67
2022/03/01 06:03:04;;;;;;;19.88;10.75;;;;;;;;;;5071369;28;20551;-67
2022/03/01 06:05:30;;;;;;;19.10;10.25;;;;;;;;;;5071445;28;20047;-67
2022/03/01 06:07:57;;;;;;;16.88;10.32;;;;;;;;;;5070665;28;20072;-67
2022/03/01 06:10:23;;;;;;;20.42;9.73;;;;;;;;;;5069929;28;20052;-67
2022/03/01 06:12:49;;;;;;;17.95;10.63;;;;;;;;;;5071685;28;20821;-67
2022/03/01 06:15:15;;;;;;;19.75;10.95;;;;;;;;;;5070997;28;20074;-67
2022/03/01 06:17:41;;;;;;;18.50;10.35;;;;;;;;;;5069587;28;20541;-67
2022/03/01 06:20:09;;;;;;;18.38;10.75;;;;;;;;;;5071411;28;20427;-67
2022/03/01 06:22:35;;;;;;;18.02;9.88;;;;;;;;;;5069732;28;20467;-67
2022/03/01 06:25:01;;;;;;;17.27;9.80;;;;;;;;;;5070678;28;20040;-67
2022/03/01 06:27:27;;;;;;;16.23;10.25;;;;;;;;;;5090780;28;20036;-67
2022/03/01 06:29:54;;;;;;;21.58;11.05;;;;;;;;;;5089932;28;20084;-67
2022/03/01 06:32:20;;;;;;;18.42;10.48;;;;;;;;;;5089360;28;20040;-67
2022/03/01 06:34:46;;;;;;;17.13;10.13;;;;;;;;;;5090127;28;20135;-67
2022/03/01 06:37:15;;;;;;;18.52;10.77;;;;;;;;;;5094994;28;20036;-67
2022/03/01 06:39:43;;;;;;;21.52;11.50;;;;;;;;;;5094830;28;20114;-67
2022/03/01 06:42:09;;;;;;;19.50;10.60;;;;;;;;;;5093756;28;20043;-67
2022/03/01 06:44:35;;;;;;;21.35;10.98;;;;;;;;;;5093759;28;20113;-67
2022/03/01 06:47:02;;;;;;;20.38;10.00;;;;;;;;;;5094632;28;20048;-67
2022/03/01 06:49:28;;;;;;;17.90;10.52;;;;;;;;;;5094313;28;20074;-67
2022/03/01 06:51:54;;;;;;;18.42;10.02;;;;;;;;;;5095159;28;20071;-67
2022/03/01 06:54:20;;;;;;;19.50;11.25;;;;;;;;;;5093123;28;20164;-67
2022/03/01 06:56:47;;;;;;;24.05;12.40;;;;;;;;;;5093518;28;20402;-67
2022/03/01 06:59:13;;;;;;;17.73;9.90;;;;;;;;;;5093287;28;20120;-67
2022/03/01 07:01:39;;;;;;;17.08;10.20;;;;;;;;;;5094171;28;20049;-67
2022/03/01 07:04:05;;;;;;;15.60;10.50;;;;;;;;;;5094693;28;20036;-67
2022/03/01 07:06:31;;;;;;;19.77;10.30;;;;;;;;;;5095013;28;20070;-67
2022/03/01 07:08:57;;;;;;;17.75;10.65;;;;;;;;;;5092809;28;20490;-67
2022/03/01 07:11:23;;;;;;;20.08;9.82;;;;;;;;;;5094567;28;20055;-67
2022/03/01 07:13:50;;;;;;;18.42;9.88;;;;;;;;;;5094691;28;20490;-67
2022/03/01 07:16:17;;;;;;;21.45;10.75;;;;;;;;;;5092815;28;20119;-67
2022/03/01 07:18:43;;;;;;;16.17;9.85;;;;;;;;;;5094251;28;20044;-67
2022/03/01 07:21:10;;;;;;;19.88;10.50;;;;;;;;;;5076572;28;20072;-67
2022/03/01 07:23:36;;;;;;;18.80;10.45;;;;;;;;;;5094098;28;20042;-68
2022/03/01 07:26:04;;;;;;;19.15;10.13;;;;;;;;;;5086848;28;20047;-68
2022/03/01 07:28:30;;;;;;;19.40;9.70;;;;;;;;;;5092285;28;20075;-68
2022/03/01 07:30:56;;;;;;;17.60;10.10;;;;;;;;;;5091017;28;20059;-68
2022/03/01 07:33:23;;;;;;;18.40;10.98;;;;;;;;;;5087708;28;20044;-68
2022/03/01 07:35:49;;;;;;;17.38;10.48;;;;;;;;;;5092848;28;20040;-67
2022/03/01 07:38:16;;;;;;;18.15;10.90;;;;;;;;;;5091782;28;20486;-70
2022/03/01 07:40:42;;;;;;;18.83;10.80;;;;;;;;;;5091277;28;20043;-68
2022/03/01 07:43:08;;;;;;;20.85;11.57;;;;;;;;;;5087491;28;20542;-68
2022/03/01 07:45:34;;;;;;;20.63;11.35;;;;;;;;;;5082440;28;20161;-68
2022/03/01 07:48:01;;;;;;;19.60;10.52;;;;;;;;;;5091201;28;20059;-70
2022/03/01 07:50:28;;;;;;;22.27;10.50;;;;;;;;;;5090974;28;20051;-67
2022/03/01 07:52:54;;;;;;;18.23;10.63;;;;;;;;;;5090702;28;20644;-69
2022/03/01 07:55:21;;;;;;;19.10;11.73;;;;;;;;;;5084544;28;20047;-71
2022/03/01 07:57:48;;;;;;;18.50;11.32;;;;;;;;;;5079636;28;20093;-69
2022/03/01 08:00:14;;;;;;;21.77;11.63;;;;;;;;;;5072313;28;20039;-73
2022/03/01 08:02:41;;;;;;;19.65;10.93;;;;;;;;;;5090259;28;20044;-70
2022/03/01 08:05:08;;;;;;;19.67;11.63;;;;;;;;;;5091581;28;20512;-69
2022/03/01 08:07:34;;;;;;;18.73;11.00;;;;;;;;;;5091552;28;20383;-67
2022/03/01 08:10:00;;;;;;;18.73;11.23;;;;;;;;;;5093775;28;20065;-67
2022/03/01 08:12:29;;;;;;;18.42;11.63;;;;;;;;;;5088519;28;20109;-68
2022/03/01 08:14:56;;;;;;;20.88;11.48;;;;;;;;;;5080861;28;20044;-68
2022/03/01 08:17:22;;;;;;;21.25;12.00;;;;;;;;;;5084054;28;20044;-69
2022/03/01 08:19:48;;;;;;;23.30;11.15;;;;;;;;;;5087962;28;20390;-72
2022/03/01 08:22:14;;;;;;;22.67;11.25;;;;;;;;;;5080932;28;20077;-71
2022/03/01 08:24:40;;;;;;;19.98;11.75;;;;;;;;;;5078493;28;20560;-73
2022/03/01 08:27:06;;;;;;;23.63;12.63;;;;;;;;;;5086173;28;20051;-70
2022/03/01 08:29:32;;;;;;;24.85;12.85;;;;;;;;;;5042831;28;1075308;-71
2022/03/01 08:31:59;;;;;;;22.85;12.60;;;;;;;;;;5089599;28;20048;-72
2022/03/01 08:34:25;;;;;;;19.13;11.70;;;;;;;;;;5088985;28;20040;-69
2022/03/01 08:36:51;;;;;;;22.27;12.40;;;;;;;;;;5089304;28;20046;-71
2022/03/01 08:39:17;;;;;;;23.15;12.27;;;;;;;;;;5091494;28;20078;-69
2022/03/01 08:41:43;;;;;;;22.23;11.90;;;;;;;;;;5091161;28;20573;-72
2022/03/01 08:44:09;;;;;;;20.48;11.82;;;;;;;;;;5081547;28;20048;-71
2022/03/01 08:46:35;;;;;;;20.45;11.88;;;;;;;;;;5087016;28;20032;-68
2022/03/01 08:49:01;;;;;;;22.33;12.30;;;;;;;;;;5083846;28;20457;-66
2022/03/01 08:51:27;;;;;;;18.17;11.05;;;;;;;;;;5090341;28;20020;-72
2022/03/01 08:53:54;;;;;;;21.92;12.02;;;;;;;;;;5084873;28;20091;-69
2022/03/01 08:56:20;;;;;;;22.17;11.52;;;;;;;;;;5082077;28;20495;-73
2022/03/01 08:58:50;;;;;;;21.35;11.32;;;;;;;;;;5088334;28;20048;-66
2022/03/01 09:01:16;;;;;;;21.77;11.88;;;;;;;;;;5087481;28;20497;-68
2022/03/01 09:03:42;;;;;;;20.38;11.85;;;;;;;;;;5071966;28;20040;-65
2022/03/01 09:06:08;;;;;;;20.80;12.63;;;;;;;;;;5082627;28;20044;-70
2022/03/01 09:08:40;;;;;;;23.88;12.70;;;;;;;;;;5084581;28;20477;-67
2022/03/01 09:11:07;;;;;;;20.88;11.68;;;;;;;;;;5077903;28;20541;-66
2022/03/01 09:13:33;;;;;;;22.65;13.10;;;;;;;;;;5080979;28;20282;-65
2022/03/01 09:15:59;;;;;;;22.50;12.27;;;;;;;;;;5087368;28;20554;-68
2022/03/01 09:18:25;;;;;;;21.52;12.77;;;;;;;;;;5090159;28;20123;-67
2022/03/01 09:20:51;;;;;;;21.02;12.75;;;;;;;;;;5087232;28;20044;-69
2022/03/01 09:23:17;;;;;;;25.73;14.30;;;;;;;;;;5086713;28;20184;-68
2022/03/01 09:25:43;;;;;;;28.42;12.77;;;;;;;;;;5086992;28;20546;-68
2022/03/01 09:28:09;;;;;;;24.83;13.02;;;;;;;;;;5085817;28;20063;-68
2022/03/01 09:30:36;;;;;;;23.83;12.75;;;;;;;;;;5080536;28;20127;-65
2022/03/01 09:33:02;;;;;;;25.67;13.25;;;;;;;;;;5080428;28;20096;-65
2022/03/01 09:35:28;;;;;;;22.35;12.98;;;;;;;;;;5089990;28;20124;-66
2022/03/01 09:37:55;;;;;;;24.45;13.45;;;;;;;;;;5084612;28;20077;-68
2022/03/01 09:40:22;;;;;;;26.95;13.73;;;;;;;;;;5083852;28;20399;-67
2022/03/01 09:42:51;;;;;;;25.30;13.05;;;;;;;;;;5079824;28;20048;-69
2022/03/01 09:45:17;;;;;;;24.40;13.75;;;;;;;;;;5083296;28;20044;-68
2022/03/01 09:47:43;;;;;;;24.42;13.55;;;;;;;;;;5089284;28;20089;-68
2022/03/01 09:50:10;;;;;;;27.70;13.07;;;;;;;;;;5085856;28;20050;-69
2022/03/01 09:52:36;;;;;;;23.40;12.77;;;;;;;;;;5078271;28;20036;-70
2022/03/01 09:55:03;;;;;;;23.67;13.40;;;;;;;;;;5072911;28;20071;-68
2022/03/01 09:57:29;;;;;;;21.17;12.90;;;;;;;;;;5084787;28;20425;-67
2022/03/01 09:59:56;;;;;;;25.98;12.73;;;;;;;;;;5082080;28;20036;-70
2022/03/01 10:02:32;;;;;;;25.77;13.73;;;;;;;;;;5070203;28;20509;-69
2022/03/01 10:04:58;;;;;;;22.83;13.10;;;;;;;;;;5080245;28;20040;-68
2022/03/01 10:07:25;;;;;;;20.50;12.75;;;;;;;;;;5073847;28;20044;-69
2022/03/01 10:09:52;;;;;;;24.52;13.40;;;;;;;;;;5083084;28;20142;-67
2022/03/01 10:12:29;;;;;;;24.25;13.60;;;;;;;;;;5083795;28;20040;-70
2022/03/01 10:14:58;;;;;;;21.10;13.27;;;;;;;;;;5079926;28;20089;-71
2022/03/01 10:17:24;;;;;;;25.65;13.00;;;;;;;;;;5082325;28;20127;-70
2022/03/01 10:20:00;;;;;;;24.48;12.23;;;;;;;;;;5088350;28;20687;-68
2022/03/01 10:22:26;;;;;;;21.90;13.07;;;;;;;;;;5092110;28;20040;-69
2022/03/01 10:24:52;;;;;;;21.38;12.32;;;;;;;;;;5079023;28;20041;-70
2022/03/01 10:27:27;;;;;;;24.85;13.15;;;;;;;;;;5081052;28;20080;-68
2022/03/01 10:29:53;;;;;;;21.52;12.02;;;;;;;;;;5084162;28;20095;-69
2022/03/01 10:32:20;;;;;;;24.13;13.48;;;;;;;;;;5078920;28;20056;-66
2022/03/01 10:34:59;;;;;;;20.73;12.05;;;;;;;;;;5084959;28;20460;-70
2022/03/01 10:37:29;;;;;;;23.35;12.23;;;;;;;;;;5079958;28;20044;-71
2022/03/01 10:40:14;;;;;;;21.45;13.15;;;;;;;;;;5077994;28;20417;-66
2022/03/01 10:42:41;;;;;;;20.60;12.23;;;;;;;;;;5079626;28;20045;-66
2022/03/01 10:45:09;;;;;;;20.55;12.20;;;;;;;;;;5083695;28;20045;-67
2022/03/01 10:47:35;;;;;;;19.08;12.30;;;;;;;;;;5065213;28;20046;-71
2022/03/01 10:50:11;;;;;;;22.38;12.65;;;;;;;;;;5085950;28;20459;-66
2022/03/01 10:52:39;;;;;;;21.10;12.93;;;;;;;;;;5075203;28;20032;-69
2022/03/01 10:55:06;;;;;;;23.40;13.07;;;;;;;;;;5073398;28;20052;-71
2022/03/01 10:57:32;;;;;;;20.08;12.18;;;;;;;;;;5078800;28;20048;-70
2022/03/01 10:59:58;;;;;;;21.80;12.85;;;;;;;;;;5075085;28;20146;-70
2022/03/01 11:02:24;;;;;;;23.70;12.88;;;;;;;;;;5078917;28;20036;-67
2022/03/01 11:04:51;;;;;;;22.85;13.43;;;;;;;;;;5080854;28;20514;-67
2022/03/01 11:07:19;;;;;;;23.10;12.60;;;;;;;;;;5081707;28;20036;-71
2022/03/01 11:09:46;;;;;;;21.05;12.25;;;;;;;;;;5080739;28;20044;-68
2022/03/01 11:12:13;;;;;;;20.30;12.85;;;;;;;;;;5076403;28;20474;-67
2022/03/01 11:14:42;;;;;;;23.90;13.48;;;;;;;;;;5070880;28;20036;-66
2022/03/01 11:17:17;;;;;;;20.58;12.90;;;;;;;;;;5071340;28;20131;-67
2022/03/01 11:19:52;;;;;;;20.70;12.38;;;;;;;;;;5076880;28;20041;-70
2022/03/01 11:22:21;;;;;;;21.23;12.50;;;;;;;;;;5073505;28;20040;-70
2022/03/01 11:24:49;;;;;;;20.45;12.50;;;;;;;;;;5089486;28;20085;-68
2022/03/01 11:27:19;;;;;;;20.35;12.60;;;;;;;;;;5087218;28;20367;-69
2022/03/01 11:29:45;;;;;;;21.08;12.38;;;;;;;;;;5088889;28;20469;-68
2022/03/01 11:32:13;;;;;;;17.95;12.07;;;;;;;;;;5085013;28;20036;-68
2022/03/01 11:34:39;;;;;;;20.05;11.65;;;;;;;;;;5079485;28;20043;-67
2022/03/01 11:37:12;;;;;;;18.98;11.85;;;;;;;;;;5083063;28;20040;-67
2022/03/01 11:39:38;;;;;;;22.85;12.65;;;;;;;;;;5083405;28;20088;-67
2022/03/01 11:42:07;;;;;;;19.80;12.63;;;;;;;;;;5079126;28;20475;-67
2022/03/01 11:44:34;;;;;;;19.77;12.45;;;;;;;;;;5078748;28;20036;-67
2022/03/01 11:47:02;;;;;;;22.00;12.52;;;;;;;;;;5072961;28;20051;-67
2022/03/01 11:49:33;;;;;;;20.08;12.57;;;;;;;;;;5088547;28;20597;-67
2022/03/01 11:52:02;;;;;;;17.92;12.15;;;;;;;;;;5082019;28;20035;-67
2022/03/01 11:54:30;;;;;;;20.92;13.07;;;;;;;;;;5088714;28;20089;-67
2022/03/01 11:56:57;;;;;;;19.48;12.65;;;;;;;;;;5089468;28;20201;-67
2022/03/01 11:59:24;;;;;;;24.42;13.85;;;;;;;;;;5086225;28;20044;-67
2022/03/01 12:01:51;;;;;;;23.05;12.93;;;;;;;;;;5086759;28;20185;-67
2022/03/01 12:04:27;;;;;;;19.40;12.85;;;;;;;;;;5090014;28;20036;-67
2022/03/01 12:06:57;;;;;;;21.92;12.98;;;;;;;;;;5080958;28;20037;-67
2022/03/01 12:09:25;;;;;;;23.27;13.45;;;;;;;;;;5075240;28;20735;-66
2022/03/01 12:12:01;;;;;;;22.25;12.82;;;;;;;;;;5078325;28;20518;-66
2022/03/01 12:14:29;;;;;;;19.77;12.57;;;;;;;;;;5080401;28;20418;-66
2022/03/01 12:16:55;;;;;;;20.88;13.18;;;;;;;;;;5079889;28;20055;-65
2022/03/01 12:19:22;;;;;;;20.95;11.90;;;;;;;;;;5079035;28;20036;-66
2022/03/01 12:21:50;;;;;;;22.10;12.93;;;;;;;;;;5085486;28;20083;-66
2022/03/01 12:24:16;;;;;;;20.30;12.65;;;;;;;;;;5078051;28;20040;-67
2022/03/01 12:26:52;;;;;;;20.10;12.57;;;;;;;;;;5089461;28;20054;-68
2022/03/01 12:29:19;;;;;;;20.52;11.95;;;;;;;;;;5085718;28;20139;-69
2022/03/01 12:31:55;;;;;;;20.33;13.32;;;;;;;;;;5078006;28;20041;-68
2022/03/01 12:34:23;;;;;;;21.63;13.45;;;;;;;;;;5055310;28;20059;-70
2022/03/01 12:36:53;;;;;;;21.55;12.95;;;;;;;;;;5074518;28;20044;-71
2022/03/01 12:39:21;;;;;;;18.80;12.32;;;;;;;;;;5088122;28;20112;-68
2022/03/01 12:41:47;;;;;;;23.17;13.43;;;;;;;;;;5089360;28;20371;-69
2022/03/01 12:44:14;;;;;;;20.17;12.38;;;;;;;;;;5078164;28;20051;-70
2022/03/01 12:46:40;;;;;;;19.45;12.35;;;;;;;;;;5081515;28;20938;-66
2022/03/01 12:49:08;;;;;;;20.90;12.73;;;;;;;;;;5076333;28;20051;-66
2022/03/01 12:51:34;;;;;;;20.33;12.52;;;;;;;;;;5071208;28;20052;-67
2022/03/01 12:54:05;;;;;;;22.98;13.32;;;;;;;;;;5088755;28;20193;-68
2022/03/01 12:56:33;;;;;;;20.63;13.52;;;;;;;;;;5089309;28;20040;-69
2022/03/01 12:59:03;;;;;;;20.17;12.63;;;;;;;;;;5077018;28;20374;-69
2022/03/01 13:01:30;;;;;;;27.60;13.07;;;;;;;;;;5076141;28;20549;-68
2022/03/01 13:03:56;;;;;;;21.88;13.20;;;;;;;;;;5075392;28;20036;-67
2022/03/01 13:06:22;;;;;;;19.40;12.30;;;;;;;;;;5084618;28;20039;-69
2022/03/01 13:08:54;;;;;;;21.35;12.80;;;;;;;;;;5073123;28;20032;-70
2022/03/01 13:11:21;;;;;;;23.17;13.55;;;;;;;;;;5069223;28;20048;-69
2022/03/01 13:13:47;;;;;;;26.45;14.07;;;;;;;;;;5081303;28;20508;-72
2022/03/01 13:16:17;;;;;;;22.73;13.50;;;;;;;;;;5084149;28;20413;-67
2022/03/01 13:18:43;;;;;;;19.98;13.05;;;;;;;;;;5078845;28;20455;-70
2022/03/01 13:21:11;;;;;;;22.50;13.93;;;;;;;;;;5070372;28;20036;-69
2022/03/01 13:23:37;;;;;;;23.38;14.05;;;;;;;;;;5087775;28;20463;-69
2022/03/01 13:26:03;;;;;;;25.10;14.27;;;;;;;;;;5084857;28;20442;-68
2022/03/01 13:28:30;;;;;;;26.25;13.93;;;;;;;;;;5069144;28;20392;-69
2022/03/01 13:30:56;;;;;;;21.77;13.23;;;;;;;;;;5069439;28;20059;-67
2022/03/01 13:33:27;;;;;;;25.42;13.93;;;;;;;;;;5062651;28;20094;-67
2022/03/01 13:35:53;;;;;;;22.35;13.63;;;;;;;;;;5077918;28;20047;-68
2022/03/01 13:38:20;;;;;;;22.27;14.25;;;;;;;;;;5081154;28;20444;-67
2022/03/01 13:40:46;;;;;;;21.73;14.13;;;;;;;;;;5084624;28;20124;-66
2022/03/01 13:43:12;;;;;;;24.63;13.52;;;;;;;;;;5085433;28;20048;-67
2022/03/01 13:45:39;;;;;;;24.25;14.07;;;;;;;;;;5084126;28;20032;-69
2022/03/01 13:48:10;;;;;;;24.40;14.48;;;;;;;;;;5069648;28;20051;-69
2022/03/01 13:50:37;;;;;;;21.95;13.43;;;;;;;;;;5081069;28;20532;-67
2022/03/01 13:53:17;;;;;;;22.83;14.75;;;;;;;;;;5052001;28;20062;-67
2022/03/01 13:55:44;;;;;;;23.42;14.55;;;;;;;;;;5076764;28;20044;-68
2022/03/01 13:58:13;;;;;;;19.77;12.60;;;;;;;;;;5085441;28;20132;-68
2022/03/01 14:00:44;;;;;;;20.67;13.55;;;;;;;;;;5071734;28;20039;-67
2022/03/01 14:03:12;;;;;;;24.33;14.55;;;;;;;;;;5071981;28;20041;-70
2022/03/01 14:05:41;;;;;;;26.23;15.02;;;;;;;;;;5080722;28;20466;-67
2022/03/01 14:08:11;;;;;;;23.27;14.48;;;;;;;;;;5074039;28;20047;-67
2022/03/01 14:10:38;;;;;;;22.73;14.35;;;;;;;;;;5084104;28;20466;-68
2022/03/01 14:13:06;;;;;;;21.70;13.38;;;;;;;;;;5080703;28;20047;-67
2022/03/01 14:15:33;;;;;;;24.23;14.27;;;;;;;;;;5084739;28;20114;-66
2022/03/01 14:18:00;;;;;;;23.83;13.73;;;;;;;;;;5087372;28;20080;-69
2022/03/01 14:20:28;;;;;;;24.88;14.07;;;;;;;;;;5089114;28;20412;-67